Annandale, New Jersey
Current Conditions -  °F | °C
As of 6:53 AM on Thursday 27 Nov 2014 (Local Time) from KSMQ Reporting Station
Overcast Overcast  
Wind Chill: 34°   Ceiling: 4900
Heat Index: 34°   Visibility: 9mi
Dew Point: 31°   Wind: 0mph
Humidity: 89%   Direction: NA
Pressure: 29.96"   Gusts: NA
Location:  40.65°N, 74.89°W
Report Text: KSMQ 271153Z AUTO 00000KT 9SM BKN049 BKN070 OVC080 01/M01 A2996 RMK AO2 SNB16E51 SLP148 P0000 60000 70094 T00111006 10022 20011 53013
Loading
Personal Weather Stations






























Interactive Weather Map New forecast layout! Learn more

10-Day Weather Forecast

Advertisements
Track Severe Weather on mobile